Tokio, North Dakota
Current Conditions -  °F | °C
As of 12:35 AM on Monday 22 Dec 2014 (Local Time) from KDVL Reporting Station
Overcast Overcast  
Wind Chill: 25°   Ceiling: 300
Heat Index: 30°   Visibility: 4mi
Dew Point: 23°   Wind: 5mph
Humidity: 75%   Direction: 150°SSE
Pressure: 29.49"   Gusts: NA
Location:  47.92°N, 98.82°W
Report Text: KDVL 220635Z AUTO 15004KT 4SM OVC003 M01/M05 A2949 RMK AO1
Loading
Personal Weather Stations






























Interactive Weather Map New forecast layout! Learn more

10-Day Weather Forecast

Advertisements
Track Severe Weather on mobile